Time;durP1;ratioP1;P1;durP2;ratioP2;P2;SDS_P1;SDS_P2;PMS_P1;PMS_P2;Temp;Humidity;BMP_temperature;BMP_pressure;BME280_temperature;BME280_humidity;BME280_pressure;Samples;Min_cycle;Max_cycle;Signal;HPM_P1;HPM_P2
2023/11/20 06:42:30;;;;;;;1999.90;999.90;;;;;;;;;;5068065;28;20807;-74
2023/11/20 06:44:56;;;;;;;1999.90;999.90;;;;;;;;;;5068356;28;20028;-72
2023/11/20 06:47:23;;;;;;;1999.90;999.90;;;;;;;;;;5067557;28;20078;-78
2023/11/20 06:49:49;;;;;;;1999.90;999.90;;;;;;;;;;5067010;28;20086;-69
2023/11/20 06:52:16;;;;;;;1999.90;999.90;;;;;;;;;;5067262;28;20025;-72
2023/11/20 06:54:43;;;;;;;1999.90;999.90;;;;;;;;;;5067379;28;20029;-79
2023/11/20 06:57:10;;;;;;;1999.90;999.90;;;;;;;;;;5049901;28;20483;-75
2023/11/20 06:59:36;;;;;;;1999.90;999.90;;;;;;;;;;5067422;28;20072;-72
2023/11/20 07:02:03;;;;;;;1999.90;999.90;;;;;;;;;;5067416;28;20089;-71
2023/11/20 07:04:35;;;;;;;1999.90;999.90;;;;;;;;;;5049171;28;20107;-72
2023/11/20 07:07:01;;;;;;;1999.90;999.90;;;;;;;;;;5067426;28;20058;-73
2023/11/20 07:09:30;;;;;;;1999.90;999.90;;;;;;;;;;5067124;28;20106;-72
2023/11/20 07:11:56;;;;;;;1999.90;999.90;;;;;;;;;;5049049;28;20060;-72
2023/11/20 07:14:22;;;;;;;1999.90;999.90;;;;;;;;;;5049467;28;20051;-82
2023/11/20 07:16:48;;;;;;;1999.90;999.90;;;;;;;;;;5066560;28;20024;-70
2023/11/20 07:19:14;;;;;;;1999.90;999.90;;;;;;;;;;5067219;28;20032;-76
2023/11/20 07:21:43;;;;;;;1999.90;999.90;;;;;;;;;;5067033;28;20017;-74
2023/11/20 07:24:10;;;;;;;1999.90;999.90;;;;;;;;;;5067033;28;20112;-80
2023/11/20 07:26:36;;;;;;;1999.90;999.90;;;;;;;;;;5067036;28;20020;-72
2023/11/20 07:29:02;;;;;;;1999.90;999.90;;;;;;;;;;5066863;28;20032;-75
2023/11/20 07:31:28;;;;;;;1999.90;999.90;;;;;;;;;;5066868;28;20083;-77
2023/11/20 07:33:55;;;;;;;1999.90;999.90;;;;;;;;;;5066226;28;20438;-77
2023/11/20 07:36:21;;;;;;;1999.90;999.90;;;;;;;;;;5048746;28;20044;-80
2023/11/20 07:38:47;;;;;;;1999.90;999.90;;;;;;;;;;5066885;28;20063;-81
2023/11/20 07:41:16;;;;;;;1999.90;999.90;;;;;;;;;;5065854;28;20049;-73
2023/11/20 07:43:43;;;;;;;1999.90;999.90;;;;;;;;;;5049088;28;20041;-79
2023/11/20 07:46:09;;;;;;;1999.90;999.90;;;;;;;;;;5042829;28;20093;-71
2023/11/20 07:48:35;;;;;;;1999.90;999.90;;;;;;;;;;5045655;28;20116;-76
2023/11/20 07:51:02;;;;;;;1999.90;999.90;;;;;;;;;;5041436;28;20104;-74
2023/11/20 07:53:28;;;;;;;1999.90;999.90;;;;;;;;;;5043022;28;20351;-76
2023/11/20 07:55:54;;;;;;;1999.90;999.90;;;;;;;;;;5036655;28;20109;-77
2023/11/20 07:58:20;;;;;;;1999.90;999.90;;;;;;;;;;5031808;28;20037;-80
2023/11/20 08:00:47;;;;;;;1999.90;999.90;;;;;;;;;;5037637;28;20029;-73
2023/11/20 08:03:13;;;;;;;1999.90;999.90;;;;;;;;;;5043304;28;20474;-75
2023/11/20 08:05:41;;;;;;;1999.90;999.90;;;;;;;;;;5042946;28;20029;-74
2023/11/20 08:08:07;;;;;;;1999.90;999.90;;;;;;;;;;5035277;28;20473;-75
2023/11/20 08:10:33;;;;;;;1999.90;999.90;;;;;;;;;;5032599;28;20469;-71
2023/11/20 08:12:59;;;;;;;1999.90;999.90;;;;;;;;;;5033030;28;20037;-78
2023/11/20 08:15:25;;;;;;;1999.90;999.90;;;;;;;;;;5033143;28;20108;-77
2023/11/20 08:17:51;;;;;;;1999.90;999.90;;;;;;;;;;5041106;28;20457;-70
2023/11/20 08:20:18;;;;;;;1999.90;999.90;;;;;;;;;;5033531;28;20046;-77
2023/11/20 08:22:44;;;;;;;1999.90;999.90;;;;;;;;;;5040772;28;20148;-70
2023/11/20 08:25:10;;;;;;;1999.90;999.90;;;;;;;;;;5043261;28;20025;-71
2023/11/20 08:27:38;;;;;;;1999.90;999.90;;;;;;;;;;5041625;28;20017;-74
2023/11/20 08:30:05;;;;;;;1999.90;999.90;;;;;;;;;;5042294;28;20400;-78
2023/11/20 08:32:31;;;;;;;1999.90;999.90;;;;;;;;;;5044523;28;20033;-73
2023/11/20 08:34:57;;;;;;;1999.90;999.90;;;;;;;;;;5042106;28;20029;-72
2023/11/20 08:37:23;;;;;;;1999.90;999.90;;;;;;;;;;5041577;28;20416;-71
2023/11/20 08:39:49;;;;;;;1999.90;999.90;;;;;;;;;;5044755;28;20117;-75
2023/11/20 08:42:15;;;;;;;1999.90;999.90;;;;;;;;;;5042754;28;20045;-78
2023/11/20 08:44:42;;;;;;;1999.90;999.90;;;;;;;;;;5041514;28;20070;-80
2023/11/20 08:47:09;;;;;;;1999.90;999.90;;;;;;;;;;5043144;28;20090;-71
2023/11/20 08:49:37;;;;;;;1999.90;999.90;;;;;;;;;;5045723;28;20157;-74
2023/11/20 08:52:04;;;;;;;1999.90;999.90;;;;;;;;;;5043404;28;20034;-74
2023/11/20 08:54:30;;;;;;;1999.90;999.90;;;;;;;;;;5041227;28;20025;-70
2023/11/20 08:56:56;;;;;;;1999.90;999.90;;;;;;;;;;5040792;28;20387;-75
2023/11/20 08:59:22;;;;;;;1999.90;999.90;;;;;;;;;;5041979;28;20405;-72
2023/11/20 09:01:48;;;;;;;1999.90;999.90;;;;;;;;;;5042554;28;20497;-77
2023/11/20 09:04:15;;;;;;;1999.90;999.90;;;;;;;;;;5041218;28;20105;-68
2023/11/20 09:06:42;;;;;;;1999.90;999.90;;;;;;;;;;5041014;28;20024;-69
2023/11/20 09:09:09;;;;;;;1999.90;999.90;;;;;;;;;;5042074;28;20021;-71
2023/11/20 09:13:59;;;;;;;1999.90;999.90;;;;;;;;;;5067255;28;20387;-66
2023/11/20 09:16:25;;;;;;;1999.90;999.90;;;;;;;;;;5067154;28;20111;-68
2023/11/20 09:18:51;;;;;;;1999.90;999.90;;;;;;;;;;5066991;28;20083;-68
2023/11/20 09:21:18;;;;;;;1999.90;999.90;;;;;;;;;;5067210;28;20017;-69
2023/11/20 09:23:44;;;;;;;1999.90;999.90;;;;;;;;;;5067014;28;20021;-68
2023/11/20 09:26:11;;;;;;;1999.90;999.90;;;;;;;;;;5067380;28;20472;-70
2023/11/20 09:28:40;;;;;;;1999.90;999.90;;;;;;;;;;5067212;28;20100;-69
2023/11/20 09:31:06;;;;;;;1999.90;999.90;;;;;;;;;;5067037;28;20024;-66
2023/11/20 09:33:34;;;;;;;1999.90;999.90;;;;;;;;;;5066852;28;20033;-69
2023/11/20 09:36:00;;;;;;;1999.90;999.90;;;;;;;;;;5067270;28;20044;-65
2023/11/20 09:38:26;;;;;;;1999.90;999.90;;;;;;;;;;5067012;28;20086;-69
2023/11/20 09:40:58;;;;;;;1999.90;999.90;;;;;;;;;;5057032;28;20029;-69
2023/11/20 09:43:27;;;;;;;1999.90;999.90;;;;;;;;;;5039102;28;20025;-70
2023/11/20 09:45:55;;;;;;;1999.90;999.90;;;;;;;;;;5047571;28;20056;-68
2023/11/20 09:48:22;;;;;;;1999.90;999.90;;;;;;;;;;5079187;28;20076;-66
2023/11/20 09:50:48;;;;;;;1999.90;999.90;;;;;;;;;;5047367;28;20033;-67
2023/11/20 09:53:14;;;;;;;1999.90;999.90;;;;;;;;;;5044970;28;20033;-67
2023/11/20 09:55:41;;;;;;;1999.90;999.90;;;;;;;;;;5046937;28;20025;-66
2023/11/20 09:58:08;;;;;;;1999.90;999.90;;;;;;;;;;5047125;28;20022;-67
2023/11/20 10:00:35;;;;;;;1999.90;999.90;;;;;;;;;;5046386;28;20469;-67
2023/11/20 10:03:01;;;;;;;1999.90;999.90;;;;;;;;;;5046618;28;20152;-65
2023/11/20 10:05:30;;;;;;;1999.90;999.90;;;;;;;;;;5046320;28;20025;-66
2023/11/20 10:07:58;;;;;;;1999.90;999.90;;;;;;;;;;5046647;28;20040;-66
2023/11/20 10:10:26;;;;;;;1999.90;999.90;;;;;;;;;;5044828;28;20025;-67
2023/11/20 10:12:53;;;;;;;1999.90;999.90;;;;;;;;;;5046261;28;20485;-70
2023/11/20 10:15:21;;;;;;;1999.90;999.90;;;;;;;;;;5046388;28;20040;-67
2023/11/20 10:17:47;;;;;;;1999.90;999.90;;;;;;;;;;5045261;28;20033;-67
2023/11/20 10:20:15;;;;;;;1999.90;999.90;;;;;;;;;;5046276;28;20025;-67
2023/11/20 10:22:41;;;;;;;1999.90;999.90;;;;;;;;;;5045779;28;20025;-67
2023/11/20 10:25:09;;;;;;;1999.90;999.90;;;;;;;;;;5033885;28;20421;-66
2023/11/20 10:27:35;;;;;;;1999.90;999.90;;;;;;;;;;5031533;28;20108;-68
2023/11/20 10:30:03;;;;;;;1999.90;999.90;;;;;;;;;;5032805;28;20018;-67
2023/11/20 10:32:29;;;;;;;1999.90;999.90;;;;;;;;;;5032591;28;20495;-64
2023/11/20 10:35:15;;;;;;;1999.90;999.90;;;;;;;;;;5032525;28;20026;-67
2023/11/20 10:38:01;;;;;;;1999.90;999.90;;;;;;;;;;5032457;28;20037;-65
2023/11/20 10:40:28;;;;;;;1999.90;999.90;;;;;;;;;;5031267;28;20473;-64
2023/11/20 10:42:55;;;;;;;1999.90;999.90;;;;;;;;;;5032058;28;20029;-68
2023/11/20 10:45:22;;;;;;;1999.90;999.90;;;;;;;;;;5030761;28;20025;-70
2023/11/20 10:47:49;;;;;;;1999.90;999.90;;;;;;;;;;5032743;28;20027;-70
2023/11/20 10:50:17;;;;;;;1999.90;999.90;;;;;;;;;;5032728;28;20423;-67
2023/11/20 10:52:44;;;;;;;1999.90;999.90;;;;;;;;;;5031543;28;20033;-67
2023/11/20 10:55:20;;;;;;;1999.90;999.90;;;;;;;;;;5032591;28;20028;-67
2023/11/20 10:57:46;;;;;;;1999.90;999.90;;;;;;;;;;5032615;28;20056;-67
2023/11/20 11:00:15;;;;;;;1999.90;999.90;;;;;;;;;;5032097;28;20106;-66
2023/11/20 11:02:42;;;;;;;1999.90;999.90;;;;;;;;;;5032338;28;20378;-67
2023/11/20 11:05:10;;;;;;;1999.90;999.90;;;;;;;;;;5031263;28;20025;-66
2023/11/20 11:07:40;;;;;;;1999.90;999.90;;;;;;;;;;5028229;28;20075;-68
2023/11/20 11:10:14;;;;;;;1999.90;999.90;;;;;;;;;;5031712;28;20075;-68
2023/11/20 11:12:44;;;;;;;1999.90;999.90;;;;;;;;;;5029318;28;20511;-66
2023/11/20 11:15:14;;;;;;;1999.90;999.90;;;;;;;;;;5031322;28;20033;-65
2023/11/20 11:17:49;;;;;;;1999.90;999.90;;;;;;;;;;5031882;28;20047;-66
2023/11/20 11:20:19;;;;;;;1999.90;999.90;;;;;;;;;;5028925;28;20029;-66
2023/11/20 11:22:49;;;;;;;1999.90;999.90;;;;;;;;;;5031389;28;20424;-64
2023/11/20 11:25:15;;;;;;;1999.90;999.90;;;;;;;;;;5030557;28;20361;-64
2023/11/20 11:27:48;;;;;;;1999.90;999.90;;;;;;;;;;5021891;28;20052;-64
2023/11/20 11:30:16;;;;;;;1999.90;999.90;;;;;;;;;;5021155;28;20021;-68
2023/11/20 11:32:42;;;;;;;1999.90;999.90;;;;;;;;;;5021252;28;20026;-65
2023/11/20 11:35:27;;;;;;;1999.90;999.90;;;;;;;;;;5019860;28;20080;-66
2023/11/20 11:37:53;;;;;;;1999.90;999.90;;;;;;;;;;5049676;28;20478;-65
2023/11/20 11:40:37;;;;;;;1999.90;999.90;;;;;;;;;;5030938;28;20080;-66
2023/11/20 11:43:12;;;;;;;1999.90;999.90;;;;;;;;;;5031300;28;20026;-66
2023/11/20 17:36:50;;;;;;;1999.90;999.90;;;;;;;;;;5107581;27;20409;-67
2023/11/20 17:39:16;;;;;;;1999.90;999.90;;;;;;;;;;5088928;28;20103;-70
2023/11/20 17:41:42;;;;;;;1999.90;999.90;;;;;;;;;;5074218;28;20024;-69
2023/11/20 17:44:08;;;;;;;1999.90;999.90;;;;;;;;;;5075488;28;20035;-70
2023/11/20 17:46:38;;;;;;;1999.90;999.90;;;;;;;;;;5087638;28;20069;-68
2023/11/20 17:49:04;;;;;;;1999.90;999.90;;;;;;;;;;5087690;28;20027;-71
2023/11/20 17:51:30;;;;;;;1999.90;999.90;;;;;;;;;;5067694;28;20067;-70
2023/11/20 17:53:56;;;;;;;1999.90;999.90;;;;;;;;;;5076266;28;20035;-69
2023/11/20 17:56:22;;;;;;;1999.90;999.90;;;;;;;;;;5081351;28;20033;-70
2023/11/20 17:58:48;;;;;;;1999.90;999.90;;;;;;;;;;5070341;28;20078;-70
2023/11/20 18:01:14;;;;;;;1999.90;999.90;;;;;;;;;;5072101;28;20048;-67
2023/11/20 18:03:42;;;;;;;1999.90;999.90;;;;;;;;;;5074297;28;20032;-68
2023/11/20 18:06:08;;;;;;;1999.90;999.90;;;;;;;;;;5083045;28;20090;-74
2023/11/20 18:08:34;;;;;;;1999.90;999.90;;;;;;;;;;5087619;28;20107;-70
2023/11/20 18:11:01;;;;;;;1999.90;999.90;;;;;;;;;;5087220;28;20028;-70
2023/11/20 18:13:28;;;;;;;1999.90;999.90;;;;;;;;;;5077760;28;20024;-69
2023/11/20 18:15:54;;;;;;;1999.90;999.90;;;;;;;;;;5076438;28;20060;-71
2023/11/20 18:18:20;;;;;;;1999.90;999.90;;;;;;;;;;5075874;28;20024;-70
2023/11/20 18:20:46;;;;;;;1999.90;999.90;;;;;;;;;;5077459;28;20031;-68
2023/11/20 18:23:12;;;;;;;1999.90;999.90;;;;;;;;;;5075682;28;20017;-71
2023/11/20 18:25:38;;;;;;;1999.90;999.90;;;;;;;;;;5075660;28;20031;-67
2023/11/20 18:28:06;;;;;;;1999.90;999.90;;;;;;;;;;5076424;28;20017;-70
2023/11/20 18:30:33;;;;;;;1999.90;999.90;;;;;;;;;;5074976;28;20044;-70
2023/11/20 18:32:59;;;;;;;1999.90;999.90;;;;;;;;;;5076853;28;20776;-69
2023/11/20 18:35:26;;;;;;;1999.90;999.90;;;;;;;;;;5071166;28;20087;-69
2023/11/20 18:37:52;;;;;;;1999.90;999.90;;;;;;;;;;5064756;28;20092;-70
2023/11/20 18:40:23;;;;;;;1999.90;999.90;;;;;;;;;;5065433;28;20048;-68
2023/11/20 18:42:52;;;;;;;1999.90;999.90;;;;;;;;;;5065751;28;20082;-69
2023/11/20 18:45:20;;;;;;;1999.90;999.90;;;;;;;;;;5065592;28;20023;-70
2023/11/20 18:47:46;;;;;;;1999.90;999.90;;;;;;;;;;5054212;28;20044;-69
2023/11/20 18:50:12;;;;;;;1999.90;999.90;;;;;;;;;;5050942;28;20064;-68
2023/11/20 18:52:38;;;;;;;1999.90;999.90;;;;;;;;;;5051901;28;20029;-67
2023/11/20 18:55:04;;;;;;;1999.90;999.90;;;;;;;;;;5052229;28;20520;-67
2023/11/20 18:57:31;;;;;;;1999.90;999.90;;;;;;;;;;5052906;28;20055;-68
2023/11/20 18:59:58;;;;;;;1999.90;999.90;;;;;;;;;;5057957;28;20090;-67
2023/11/20 19:02:27;;;;;;;1999.90;999.90;;;;;;;;;;5056848;28;20070;-66
2023/11/20 19:04:53;;;;;;;1999.90;999.90;;;;;;;;;;5071458;28;20480;-65
2023/11/20 19:07:19;;;;;;;1999.90;999.90;;;;;;;;;;5072254;28;20466;-67
2023/11/20 19:09:45;;;;;;;1999.90;999.90;;;;;;;;;;5071608;28;20027;-65
2023/11/20 19:12:11;;;;;;;1999.90;999.90;;;;;;;;;;5072134;28;20033;-65
2023/11/20 19:14:37;;;;;;;1999.90;999.90;;;;;;;;;;5072311;28;20116;-67
2023/11/20 19:17:04;;;;;;;1999.90;999.90;;;;;;;;;;5071104;28;20421;-67
2023/11/20 19:19:31;;;;;;;1999.90;999.90;;;;;;;;;;5071809;28;20017;-65
2023/11/20 19:21:57;;;;;;;1999.90;999.90;;;;;;;;;;5071485;28;20448;-66
2023/11/20 19:24:23;;;;;;;1999.90;999.90;;;;;;;;;;5055995;28;20534;-65
2023/11/20 19:26:49;;;;;;;1999.90;999.90;;;;;;;;;;5051617;28;20569;-65
2023/11/20 19:29:15;;;;;;;1999.90;999.90;;;;;;;;;;5051788;28;20461;-64
2023/11/20 19:31:41;;;;;;;1999.90;999.90;;;;;;;;;;5052251;28;20420;-66
2023/11/20 19:34:08;;;;;;;1999.90;999.90;;;;;;;;;;5051919;28;20380;-66
2023/11/20 19:36:34;;;;;;;1999.90;999.90;;;;;;;;;;5051258;28;20075;-66
2023/11/20 19:39:00;;;;;;;1999.90;999.90;;;;;;;;;;5052167;28;20433;-66
2023/11/20 19:41:29;;;;;;;1999.90;999.90;;;;;;;;;;5052163;28;20033;-65
2023/11/20 19:43:56;;;;;;;1999.90;999.90;;;;;;;;;;5052026;28;20037;-66
2023/11/20 19:46:22;;;;;;;1999.90;999.90;;;;;;;;;;5052160;28;20017;-68
2023/11/20 19:48:51;;;;;;;1999.90;999.90;;;;;;;;;;5051979;28;20029;-67
2023/11/20 19:51:18;;;;;;;1999.90;999.90;;;;;;;;;;5052124;28;20558;-68
2023/11/20 19:53:46;;;;;;;1999.90;999.90;;;;;;;;;;5052186;28;20091;-68
2023/11/20 19:56:12;;;;;;;1999.90;999.90;;;;;;;;;;5052138;28;20032;-67
2023/11/20 19:58:41;;;;;;;1999.90;999.90;;;;;;;;;;5051038;28;20060;-67
2023/11/20 20:01:07;;;;;;;1999.90;999.90;;;;;;;;;;5051790;28;20025;-67
2023/11/20 20:03:33;;;;;;;1999.90;999.90;;;;;;;;;;5051683;28;20036;-69
2023/11/20 20:05:59;;;;;;;1999.90;999.90;;;;;;;;;;5051058;28;20044;-67
2023/11/20 20:08:25;;;;;;;1999.90;999.90;;;;;;;;;;5051370;28;20024;-66
2023/11/20 20:10:51;;;;;;;1999.90;999.90;;;;;;;;;;5051482;28;20205;-69
2023/11/20 20:13:20;;;;;;;1999.90;999.90;;;;;;;;;;5060134;28;20020;-67
2023/11/20 20:15:47;;;;;;;1999.90;999.90;;;;;;;;;;5053685;28;20032;-69
2023/11/20 20:18:14;;;;;;;1999.90;999.90;;;;;;;;;;5051237;28;20338;-66
2023/11/20 20:20:40;;;;;;;1999.90;999.90;;;;;;;;;;5051138;28;20033;-67
2023/11/20 20:23:06;;;;;;;1999.90;999.90;;;;;;;;;;5055725;28;20037;-67
2023/11/20 20:25:32;;;;;;;1999.90;999.90;;;;;;;;;;5065482;28;20033;-67
2023/11/20 20:27:58;;;;;;;1999.90;999.90;;;;;;;;;;5064821;28;20134;-66
2023/11/20 20:30:24;;;;;;;1999.90;999.90;;;;;;;;;;5070578;28;20036;-67
2023/11/20 20:32:52;;;;;;;1999.90;999.90;;;;;;;;;;5070641;28;20024;-66
2023/11/20 20:35:18;;;;;;;1999.90;999.90;;;;;;;;;;5070425;28;20097;-66
2023/11/20 20:37:44;;;;;;;1999.90;999.90;;;;;;;;;;5066460;28;20060;-66
2023/11/20 20:40:11;;;;;;;1999.90;999.90;;;;;;;;;;5049675;28;20534;-72
2023/11/20 20:42:37;;;;;;;1999.90;999.90;;;;;;;;;;5050270;28;20024;-72
2023/11/20 20:45:04;;;;;;;1999.90;999.90;;;;;;;;;;5050227;28;20068;-71
2023/11/20 20:47:30;;;;;;;1999.90;999.90;;;;;;;;;;5049520;28;20029;-71
2023/11/20 20:49:56;;;;;;;1999.90;999.90;;;;;;;;;;5049639;28;20029;-70
2023/11/20 20:52:23;;;;;;;1999.90;999.90;;;;;;;;;;5050009;28;20495;-74
2023/11/20 20:54:49;;;;;;;1999.90;999.90;;;;;;;;;;5049774;28;20040;-71
2023/11/20 20:57:15;;;;;;;1999.90;999.90;;;;;;;;;;5069977;28;20091;-71
2023/11/20 20:59:41;;;;;;;1999.90;999.90;;;;;;;;;;5069727;28;20028;-74
2023/11/20 21:02:07;;;;;;;1999.90;999.90;;;;;;;;;;5070163;28;20506;-73
2023/11/20 21:04:34;;;;;;;1999.90;999.90;;;;;;;;;;5069506;28;20460;-78
2023/11/20 21:07:04;;;;;;;1999.90;999.90;;;;;;;;;;5065354;28;20029;-66
2023/11/20 21:09:31;;;;;;;1999.90;999.90;;;;;;;;;;5050224;28;20102;-67
2023/11/20 21:11:58;;;;;;;1999.90;999.90;;;;;;;;;;5050343;28;20067;-67
2023/11/20 21:14:27;;;;;;;1999.90;999.90;;;;;;;;;;5050480;28;20082;-71
2023/11/20 21:16:54;;;;;;;1999.90;999.90;;;;;;;;;;5050357;28;20492;-69
2023/11/20 21:19:20;;;;;;;1999.90;999.90;;;;;;;;;;5049779;28;20109;-65
2023/11/20 21:21:46;;;;;;;1999.90;999.90;;;;;;;;;;5058059;28;20028;-65
2023/11/20 21:24:12;;;;;;;1999.90;999.90;;;;;;;;;;5052796;28;20545;-70
2023/11/20 21:26:39;;;;;;;1999.90;999.90;;;;;;;;;;5056519;28;20055;-67
2023/11/20 21:29:05;;;;;;;1999.90;999.90;;;;;;;;;;5069425;28;20028;-71
2023/11/20 21:31:31;;;;;;;1999.90;999.90;;;;;;;;;;5068628;28;20043;-72
2023/11/20 21:33:57;;;;;;;1999.90;999.90;;;;;;;;;;5058692;28;20376;-72
2023/11/20 21:36:23;;;;;;;1999.90;999.90;;;;;;;;;;5060211;28;20056;-71
2023/11/20 21:38:52;;;;;;;1999.90;999.90;;;;;;;;;;5058527;28;20028;-71
2023/11/20 21:41:18;;;;;;;1999.90;999.90;;;;;;;;;;5060978;28;20396;-70
2023/11/20 21:43:45;;;;;;;1999.90;999.90;;;;;;;;;;5051051;28;20039;-69
2023/11/20 21:46:11;;;;;;;1999.90;999.90;;;;;;;;;;5051616;28;20025;-75
2023/11/20 21:48:37;;;;;;;1999.90;999.90;;;;;;;;;;5066794;28;20071;-74
2023/11/20 21:51:03;;;;;;;1999.90;999.90;;;;;;;;;;5064110;28;20032;-67
2023/11/20 21:53:29;;;;;;;1999.90;999.90;;;;;;;;;;5054703;28;20094;-72
2023/11/20 21:55:56;;;;;;;1999.90;999.90;;;;;;;;;;5053630;28;20037;-71
2023/11/20 21:58:22;;;;;;;1999.90;999.90;;;;;;;;;;5057017;28;20029;-76
2023/11/20 22:00:48;;;;;;;1999.90;999.90;;;;;;;;;;5058989;28;20056;-73
2023/11/20 22:04:47;;;;;;;1999.90;999.90;;;;;;;;;;5085041;27;20386;-70
2023/11/20 22:07:17;;;;;;;1999.90;999.90;;;;;;;;;;5078040;28;20565;-75
2023/11/20 22:09:43;;;;;;;1999.90;999.90;;;;;;;;;;5083259;28;20034;-76
2023/11/20 22:12:10;;;;;;;1999.90;999.90;;;;;;;;;;5078394;28;20016;-75
2023/11/20 22:14:36;;;;;;;1999.90;999.90;;;;;;;;;;5078958;28;20111;-77
2023/11/20 22:17:03;;;;;;;1999.90;999.90;;;;;;;;;;5080874;28;20067;-76
2023/11/20 22:19:29;;;;;;;1999.90;999.90;;;;;;;;;;5079320;28;20012;-66
2023/11/20 22:21:55;;;;;;;1999.90;999.90;;;;;;;;;;5078105;28;20131;-77
2023/11/20 22:24:25;;;;;;;1999.90;999.90;;;;;;;;;;5077181;28;20529;-74
2023/11/20 22:26:52;;;;;;;1999.90;999.90;;;;;;;;;;5078272;28;20046;-76
2023/11/20 22:29:18;;;;;;;1999.90;999.90;;;;;;;;;;5076641;28;20023;-66
2023/11/20 22:31:44;;;;;;;1999.90;999.90;;;;;;;;;;5076674;28;20031;-77
2023/11/20 22:34:10;;;;;;;1999.90;999.90;;;;;;;;;;5077726;28;20044;-67
2023/11/20 22:36:36;;;;;;;1999.90;999.90;;;;;;;;;;5076279;28;20029;-67
2023/11/20 22:39:04;;;;;;;1999.90;999.90;;;;;;;;;;5076872;28;20161;-83
2023/11/20 22:41:30;;;;;;;1999.90;999.90;;;;;;;;;;5077715;28;20024;-76
2023/11/20 22:43:57;;;;;;;1999.90;999.90;;;;;;;;;;5074593;28;20040;-78
2023/11/20 22:46:23;;;;;;;1999.90;999.90;;;;;;;;;;5082903;28;20031;-69
2023/11/20 22:48:49;;;;;;;1999.90;999.90;;;;;;;;;;5077266;28;20105;-76
2023/11/20 22:51:15;;;;;;;1999.90;999.90;;;;;;;;;;5076067;28;20017;-77
2023/11/20 22:53:43;;;;;;;1999.90;999.90;;;;;;;;;;5077369;28;20036;-68
2023/11/20 22:56:10;;;;;;;1999.90;999.90;;;;;;;;;;5076834;28;20017;-75
2023/11/20 22:58:36;;;;;;;1999.90;999.90;;;;;;;;;;5075433;28;20035;-72
